Time;durP1;ratioP1;P1;durP2;ratioP2;P2;SDS_P1;SDS_P2;PMS_P1;PMS_P2;Temp;Humidity;BMP_temperature;BMP_pressure;BME280_temperature;BME280_humidity;BME280_pressure;Samples;Min_cycle;Max_cycle;Signal;HPM_P1;HPM_P2
2023/12/12 00:00:48;;;;;;;16.73;8.23;;;13.70;99.90;;;;;;4248730;27;20444;-68
2023/12/12 00:02:50;;;;;;;15.10;8.30;;;13.70;99.90;;;;;;4248698;27;20116;-66
2023/12/12 00:04:52;;;;;;;14.05;8.55;;;13.50;99.90;;;;;;4248640;27;20040;-66
2023/12/12 00:06:54;;;;;;;19.23;9.25;;;13.60;99.90;;;;;;4248697;27;20047;-65
2023/12/12 00:08:56;;;;;;;21.23;10.07;;;13.60;99.90;;;;;;4248823;27;20126;-68
2023/12/12 00:10:58;;;;;;;18.60;10.07;;;13.50;99.90;;;;;;4248615;27;20043;-67
2023/12/12 00:13:00;;;;;;;19.50;10.13;;;13.50;99.90;;;;;;4249144;27;20043;-67
2023/12/12 00:15:03;;;;;;;21.27;11.48;;;13.60;99.90;;;;;;4248441;27;20043;-66
2023/12/12 00:17:06;;;;;;;18.58;10.82;;;13.60;99.90;;;;;;4247495;27;20039;-65
2023/12/12 00:19:08;;;;;;;17.75;10.65;;;13.60;99.90;;;;;;4248066;27;20434;-65
2023/12/12 00:21:11;;;;;;;25.13;13.35;;;13.60;99.90;;;;;;4247865;27;20063;-65
2023/12/12 00:23:13;;;;;;;23.30;13.75;;;13.50;99.90;;;;;;4248327;27;20406;-65
2023/12/12 00:25:15;;;;;;;22.00;12.65;;;13.30;99.90;;;;;;4248159;27;20124;-66
2023/12/12 00:27:17;;;;;;;18.55;9.60;;;13.40;99.90;;;;;;4247895;27;20046;-66
2023/12/12 00:29:19;;;;;;;16.92;11.27;;;13.40;99.90;;;;;;4248051;27;20078;-65
2023/12/12 00:31:21;;;;;;;20.10;12.32;;;13.40;99.90;;;;;;4247802;27;20039;-65
2023/12/12 00:33:24;;;;;;;22.08;12.48;;;13.40;99.90;;;;;;4247870;27;20076;-66
2023/12/12 00:35:27;;;;;;;22.92;10.88;;;13.40;99.90;;;;;;4248126;27;20050;-65
2023/12/12 00:37:29;;;;;;;22.05;10.48;;;13.40;99.90;;;;;;4246895;27;20071;-65
2023/12/12 00:39:35;;;;;;;24.50;12.73;;;13.50;99.90;;;;;;4247850;27;20047;-66
2023/12/12 00:41:37;;;;;;;15.82;9.88;;;13.50;99.90;;;;;;4248176;27;20134;-66
2023/12/12 00:43:40;;;;;;;20.30;11.05;;;13.50;99.90;;;;;;4247963;27;20462;-63
2023/12/12 00:45:42;;;;;;;17.73;11.10;;;13.50;99.90;;;;;;4247450;27;20058;-63
2023/12/12 00:47:44;;;;;;;18.77;12.05;;;13.50;99.90;;;;;;4247868;27;20126;-63
2023/12/12 00:49:48;;;;;;;15.00;9.50;;;13.50;99.90;;;;;;4248038;27;20051;-63
2023/12/12 00:51:50;;;;;;;18.83;11.07;;;13.50;99.90;;;;;;4247836;27;20435;-63
2023/12/12 00:53:52;;;;;;;19.52;12.10;;;13.60;99.90;;;;;;4247805;27;20141;-67
2023/12/12 00:55:54;;;;;;;14.77;9.93;;;13.60;99.90;;;;;;4247599;27;20042;-63
2023/12/12 00:57:56;;;;;;;12.80;9.23;;;13.50;99.90;;;;;;4247412;27;20051;-64
2023/12/12 00:59:58;;;;;;;16.35;10.98;;;13.60;99.90;;;;;;4247096;27;20352;-65
2023/12/12 01:02:00;;;;;;;18.17;11.30;;;13.60;99.90;;;;;;4247606;27;20085;-64
2023/12/12 01:04:02;;;;;;;16.65;10.18;;;13.60;99.90;;;;;;4247376;27;20047;-64
2023/12/12 01:06:06;;;;;;;18.85;9.70;;;13.70;99.90;;;;;;4247403;27;20039;-65
2023/12/12 01:08:09;;;;;;;16.88;10.63;;;13.70;99.90;;;;;;4229431;28;20127;-65
2023/12/12 01:10:10;;;;;;;14.70;9.70;;;13.70;99.90;;;;;;4247617;27;20058;-66
2023/12/12 01:12:13;;;;;;;14.38;9.07;;;13.70;99.90;;;;;;4247313;27;20043;-66
2023/12/12 01:14:15;;;;;;;14.82;9.45;;;13.70;99.90;;;;;;4247306;27;20409;-66
2023/12/12 01:16:17;;;;;;;14.18;9.23;;;13.80;99.90;;;;;;4229256;28;20533;-65
2023/12/12 01:18:19;;;;;;;17.25;11.13;;;13.70;99.90;;;;;;4247395;27;20118;-65
2023/12/12 01:20:21;;;;;;;15.30;10.38;;;13.70;99.90;;;;;;4247528;28;20124;-66
2023/12/12 01:22:24;;;;;;;12.75;9.38;;;13.70;99.90;;;;;;4229074;28;20047;-65
2023/12/12 01:24:27;;;;;;;16.00;9.95;;;13.60;99.90;;;;;;4247398;28;20130;-66
2023/12/12 01:26:29;;;;;;;14.98;9.93;;;13.60;99.90;;;;;;4247442;28;20047;-66
2023/12/12 01:28:31;;;;;;;14.20;9.65;;;13.70;99.90;;;;;;4228647;28;20052;-66
2023/12/12 01:30:33;;;;;;;17.85;10.50;;;13.70;99.90;;;;;;4247471;28;20057;-66
2023/12/12 01:32:38;;;;;;;15.88;9.85;;;13.70;99.90;;;;;;4247301;28;20227;-67
2023/12/12 01:34:40;;;;;;;16.10;10.77;;;13.70;99.90;;;;;;4247482;28;20054;-65
2023/12/12 01:36:43;;;;;;;15.32;11.10;;;13.70;99.90;;;;;;4247429;28;20493;-66
2023/12/12 01:38:46;;;;;;;18.25;11.25;;;13.80;99.90;;;;;;4247357;28;20043;-66
2023/12/12 01:40:48;;;;;;;16.33;10.30;;;13.80;99.90;;;;;;4247339;28;20040;-66
2023/12/12 01:42:51;;;;;;;17.52;9.93;;;13.80;99.90;;;;;;4246793;28;20070;-66
2023/12/12 01:44:53;;;;;;;14.55;9.85;;;13.80;99.90;;;;;;4247063;28;20092;-65
2023/12/12 01:46:55;;;;;;;16.45;10.57;;;13.80;99.90;;;;;;4247351;28;20051;-67
2023/12/12 01:48:57;;;;;;;13.68;9.45;;;13.90;99.90;;;;;;4249513;27;20039;-65
2023/12/12 01:51:00;;;;;;;13.35;9.45;;;13.90;99.90;;;;;;4250719;27;20550;-65
2023/12/12 01:53:02;;;;;;;13.80;9.85;;;13.90;99.90;;;;;;4250854;27;20068;-67
2023/12/12 01:55:06;;;;;;;15.18;9.70;;;13.80;99.90;;;;;;4251509;27;20134;-66
2023/12/12 01:57:09;;;;;;;14.02;9.75;;;13.80;99.90;;;;;;4250469;27;20096;-66
2023/12/12 01:59:11;;;;;;;12.50;8.02;;;13.70;99.90;;;;;;4250230;27;20051;-66
2023/12/12 02:01:14;;;;;;;13.63;8.95;;;13.90;99.90;;;;;;4250225;27;20050;-66
2023/12/12 02:03:17;;;;;;;9.32;7.95;;;13.90;99.90;;;;;;4250356;27;20039;-66
2023/12/12 02:05:20;;;;;;;12.23;9.32;;;13.80;99.90;;;;;;4231966;28;20469;-67
2023/12/12 02:07:23;;;;;;;13.95;8.68;;;13.80;99.90;;;;;;4250411;27;20070;-66
2023/12/12 02:09:26;;;;;;;15.13;9.60;;;13.80;99.90;;;;;;4250100;27;20043;-66
2023/12/12 02:11:30;;;;;;;10.23;7.78;;;13.80;99.90;;;;;;4250054;27;20047;-66
2023/12/12 02:13:32;;;;;;;11.32;7.47;;;13.80;99.90;;;;;;4250437;27;20051;-66
2023/12/12 02:15:34;;;;;;;12.23;8.48;;;13.80;99.90;;;;;;4250010;27;20047;-67
2023/12/12 02:17:36;;;;;;;14.50;10.10;;;13.80;99.90;;;;;;4250296;27;20092;-66
2023/12/12 02:19:38;;;;;;;12.50;10.13;;;13.80;99.90;;;;;;4250318;27;20078;-66
2023/12/12 02:21:42;;;;;;;13.55;9.63;;;13.70;99.90;;;;;;4249830;27;20062;-66
2023/12/12 02:23:44;;;;;;;14.32;9.50;;;13.70;99.90;;;;;;4250269;27;20070;-66
2023/12/12 02:25:46;;;;;;;10.93;8.85;;;13.70;99.90;;;;;;4250126;27;20126;-66
2023/12/12 02:27:49;;;;;;;11.23;8.05;;;13.80;99.90;;;;;;4250167;27;20051;-67
2023/12/12 02:29:54;;;;;;;13.80;9.68;;;13.80;99.90;;;;;;4250576;27;20043;-66
2023/12/12 02:31:56;;;;;;;13.82;9.45;;;13.80;99.90;;;;;;4249911;27;20043;-66
2023/12/12 02:33:58;;;;;;;16.75;9.48;;;13.90;99.90;;;;;;4249844;27;20130;-66
2023/12/12 02:36:00;;;;;;;11.15;7.55;;;13.90;99.90;;;;;;4249793;27;20050;-68
2023/12/12 02:38:03;;;;;;;9.07;7.20;;;13.90;99.90;;;;;;4250192;27;20090;-66
2023/12/12 02:40:08;;;;;;;12.23;9.30;;;14.00;99.90;;;;;;4249827;27;20074;-66
2023/12/12 02:42:10;;;;;;;11.02;8.55;;;13.90;99.90;;;;;;4249614;27;20043;-66
2023/12/12 02:44:12;;;;;;;11.40;7.43;;;13.90;99.90;;;;;;4249906;27;20070;-66
2023/12/12 02:46:14;;;;;;;9.80;7.10;;;13.90;99.90;;;;;;4249699;27;20090;-67
2023/12/12 02:48:16;;;;;;;12.27;7.53;;;13.90;99.90;;;;;;4249796;27;20039;-67
2023/12/12 02:50:19;;;;;;;13.68;8.88;;;13.90;99.90;;;;;;4249977;27;20051;-66
2023/12/12 02:52:24;;;;;;;9.32;7.68;;;13.90;99.90;;;;;;4249632;27;20043;-66
2023/12/12 02:54:28;;;;;;;16.67;7.80;;;13.90;99.90;;;;;;4249659;27;20047;-68
2023/12/12 02:56:31;;;;;;;11.55;7.60;;;13.80;99.90;;;;;;4231053;28;20071;-69
2023/12/12 02:58:33;;;;;;;10.35;6.93;;;13.80;99.90;;;;;;4249540;27;20130;-67
2023/12/12 03:00:35;;;;;;;11.65;6.65;;;13.90;99.90;;;;;;4248643;27;20138;-66
2023/12/12 03:02:38;;;;;;;11.82;7.00;;;14.00;99.90;;;;;;4250048;27;20047;-66
2023/12/12 03:04:43;;;;;;;11.68;6.95;;;13.90;99.90;;;;;;4249546;27;20069;-68
2023/12/12 03:06:45;;;;;;;;;;;13.90;99.90;;;;;;4249926;27;20409;-66
2023/12/12 03:08:47;;;;;;;8.50;6.15;;;13.90;99.90;;;;;;4231355;28;20331;-66
2023/12/12 03:10:51;;;;;;;13.43;7.22;;;13.80;99.90;;;;;;4248757;27;20047;-66
2023/12/12 03:12:53;;;;;;;12.65;6.65;;;13.90;99.90;;;;;;4249248;27;20054;-65
2023/12/12 03:14:55;;;;;;;9.10;5.97;;;13.80;99.90;;;;;;4248973;27;20047;-65
2023/12/12 03:16:57;;;;;;;9.85;6.35;;;13.80;99.90;;;;;;4249119;27;20047;-65
2023/12/12 03:18:59;;;;;;;13.18;7.05;;;13.70;99.90;;;;;;4249116;27;20497;-66
2023/12/12 03:21:02;;;;;;;10.55;6.65;;;13.70;99.90;;;;;;4248841;27;20405;-65
2023/12/12 03:23:05;;;;;;;12.93;6.78;;;13.70;99.90;;;;;;4249107;27;20043;-66
2023/12/12 03:25:08;;;;;;;11.40;6.82;;;13.70;99.90;;;;;;4248701;27;20044;-65
2023/12/12 03:27:11;;;;;;;13.20;6.95;;;13.70;99.90;;;;;;4248936;27;20059;-65
2023/12/12 03:29:13;;;;;;;10.25;6.13;;;13.70;99.90;;;;;;4249259;27;20047;-66
2023/12/12 03:31:15;;;;;;;11.15;5.70;;;13.70;99.90;;;;;;4249211;27;20386;-65
2023/12/12 03:33:17;;;;;;;9.60;5.85;;;13.70;99.90;;;;;;4249239;27;20310;-66
2023/12/12 03:35:19;;;;;;;8.65;5.72;;;13.70;99.90;;;;;;4248962;27;20043;-65
2023/12/12 03:37:21;;;;;;;10.60;5.47;;;13.70;99.90;;;;;;4248852;27;20454;-65
2023/12/12 03:39:24;;;;;;;14.10;6.57;;;13.70;99.90;;;;;;4248791;27;20049;-68
2023/12/12 03:41:27;;;;;;;8.02;5.03;;;13.60;99.90;;;;;;4249282;27;20535;-66
2023/12/12 03:43:31;;;;;;;9.68;5.88;;;13.50;99.90;;;;;;4249238;27;20055;-67
2023/12/12 03:45:33;;;;;;;8.35;4.53;;;13.50;99.90;;;;;;4249018;27;20062;-66
2023/12/12 03:47:35;;;;;;;11.57;5.07;;;13.60;99.90;;;;;;4248957;27;20058;-67
2023/12/12 03:49:37;;;;;;;10.95;5.15;;;13.50;99.90;;;;;;4249607;27;20092;-67
2023/12/12 03:51:39;;;;;;;8.77;4.68;;;13.50;99.90;;;;;;4249341;27;20046;-67
2023/12/12 03:53:41;;;;;;;8.65;4.63;;;13.60;99.90;;;;;;4248846;27;20047;-67
2023/12/12 03:55:43;;;;;;;12.10;5.75;;;13.50;99.90;;;;;;4249416;27;20039;-70
2023/12/12 03:57:45;;;;;;;10.93;5.03;;;13.50;99.90;;;;;;4248600;27;20057;-66
2023/12/12 03:59:49;;;;;;;9.05;4.82;;;13.50;99.90;;;;;;4248425;27;20043;-66
2023/12/12 04:01:51;;;;;;;11.45;5.55;;;13.50;99.90;;;;;;4248655;27;20047;-66
2023/12/12 04:03:55;;;;;;;11.18;5.72;;;13.50;99.90;;;;;;4248522;27;20104;-66
2023/12/12 04:05:57;;;;;;;9.35;4.82;;;13.40;99.90;;;;;;4248458;27;20100;-66
2023/12/12 04:07:59;;;;;;;9.52;4.97;;;13.50;99.90;;;;;;4247994;27;20130;-66
2023/12/12 04:10:02;;;;;;;9.70;5.15;;;13.50;99.90;;;;;;4248585;27;20114;-66
2023/12/12 04:12:05;;;;;;;7.93;5.35;;;13.50;99.90;;;;;;4248384;27;20046;-66
2023/12/12 04:14:07;;;;;;;7.57;4.10;;;13.50;99.90;;;;;;4248323;27;20142;-66
2023/12/12 04:16:11;;;;;;;10.07;4.75;;;13.40;99.90;;;;;;4248154;27;20071;-66
2023/12/12 04:18:13;;;;;;;8.95;4.03;;;13.40;99.90;;;;;;4248344;27;20051;-66
2023/12/12 04:20:15;;;;;;;10.57;4.95;;;13.50;99.90;;;;;;4248167;27;20108;-66
2023/12/12 04:22:17;;;;;;;6.85;3.75;;;13.60;99.90;;;;;;4247657;27;20427;-66
2023/12/12 04:24:19;;;;;;;8.85;3.92;;;13.60;99.90;;;;;;4248349;27;20074;-66
2023/12/12 04:26:21;;;;;;;12.38;4.53;;;13.60;99.90;;;;;;4248289;27;20039;-66
2023/12/12 04:28:24;;;;;;;10.20;4.90;;;13.60;99.90;;;;;;4248260;27;20150;-66
2023/12/12 04:30:26;;;;;;;8.40;4.65;;;13.60;99.90;;;;;;4248094;27;20071;-66
2023/12/12 04:32:29;;;;;;;4.28;3.15;;;13.50;99.90;;;;;;4248211;27;20129;-66
2023/12/12 04:34:32;;;;;;;6.35;3.35;;;13.50;99.90;;;;;;4248106;27;20555;-66
2023/12/12 04:36:34;;;;;;;7.10;4.22;;;13.50;99.90;;;;;;4247785;27;20474;-66
2023/12/12 04:38:36;;;;;;;7.15;4.05;;;13.70;99.90;;;;;;4247483;27;20610;-66
2023/12/12 04:40:38;;;;;;;7.30;4.07;;;13.60;99.90;;;;;;4247945;27;20482;-66
2023/12/12 04:42:42;;;;;;;5.53;3.42;;;13.70;99.90;;;;;;4248050;27;20123;-66
2023/12/12 04:44:44;;;;;;;6.85;3.92;;;13.80;99.90;;;;;;4247748;27;20039;-65
2023/12/12 04:46:46;;;;;;;7.35;4.32;;;13.80;99.90;;;;;;4247798;27;20047;-66
2023/12/12 04:48:50;;;;;;;11.23;4.97;;;13.90;99.90;;;;;;4247996;27;20050;-66
2023/12/12 04:50:53;;;;;;;7.00;3.85;;;13.80;99.90;;;;;;4247815;27;20055;-66
2023/12/12 04:52:55;;;;;;;8.32;4.32;;;13.80;99.90;;;;;;4247479;27;20289;-67
2023/12/12 04:54:57;;;;;;;5.88;3.67;;;13.80;99.90;;;;;;4247509;27;20053;-66
2023/12/12 04:57:00;;;;;;;10.65;3.97;;;13.80;99.90;;;;;;4247587;27;20045;-66
2023/12/12 04:59:02;;;;;;;6.75;3.78;;;13.90;99.90;;;;;;4247811;27;20046;-66
2023/12/12 05:01:04;;;;;;;5.85;3.95;;;13.90;99.90;;;;;;4247611;27;20055;-66
2023/12/12 05:03:06;;;;;;;7.75;3.78;;;13.90;99.90;;;;;;4229461;28;20044;-69
2023/12/12 05:05:10;;;;;;;8.88;4.20;;;13.90;99.90;;;;;;4247614;27;20498;-65
2023/12/12 05:07:12;;;;;;;5.95;4.28;;;13.90;99.90;;;;;;4247274;27;20047;-68
2023/12/12 05:09:14;;;;;;;7.57;4.45;;;13.90;99.90;;;;;;4247767;27;20123;-65
2023/12/12 05:11:16;;;;;;;7.90;4.30;;;13.90;99.90;;;;;;4247533;27;20046;-66
2023/12/12 05:13:18;;;;;;;11.30;4.75;;;13.90;99.90;;;;;;4229119;28;20059;-66
2023/12/12 05:15:20;;;;;;;6.57;4.18;;;13.90;99.90;;;;;;4247441;27;20360;-66
2023/12/12 05:17:22;;;;;;;9.75;5.00;;;13.90;99.90;;;;;;4247489;27;20147;-67
2023/12/12 05:19:25;;;;;;;6.03;4.05;;;13.90;99.90;;;;;;4247435;27;20051;-66
2023/12/12 05:21:33;;;;;;;6.65;4.30;;;13.90;99.90;;;;;;4246872;27;20047;-65
2023/12/12 05:23:35;;;;;;;9.00;4.90;;;14.00;99.90;;;;;;4247082;27;20050;-66
2023/12/12 05:25:37;;;;;;;8.00;5.57;;;14.00;99.90;;;;;;4247800;28;20063;-67
2023/12/12 05:27:39;;;;;;;9.60;5.00;;;13.90;99.90;;;;;;4247495;28;20059;-66
2023/12/12 05:29:41;;;;;;;6.70;5.13;;;13.90;99.90;;;;;;4247698;28;20043;-66
2023/12/12 05:31:43;;;;;;;10.88;5.75;;;13.90;99.90;;;;;;4247192;28;20068;-66
2023/12/12 05:33:46;;;;;;;7.57;4.88;;;13.90;99.90;;;;;;4247419;28;20130;-66
2023/12/12 05:35:49;;;;;;;8.55;5.35;;;14.00;99.90;;;;;;4246906;28;20074;-66
2023/12/12 05:37:52;;;;;;;6.25;4.78;;;13.90;99.90;;;;;;4247241;28;20043;-66
2023/12/12 05:39:54;;;;;;;6.50;4.82;;;14.00;99.90;;;;;;4247239;28;20079;-66
2023/12/12 05:41:56;;;;;;;7.88;5.65;;;13.90;99.90;;;;;;4247261;28;20482;-66
2023/12/12 05:43:58;;;;;;;8.23;5.60;;;14.00;99.90;;;;;;4247115;28;20054;-66
2023/12/12 05:46:02;;;;;;;9.60;5.70;;;14.10;99.90;;;;;;4247276;28;20043;-66
2023/12/12 05:48:05;;;;;;;7.10;6.33;;;14.10;99.90;;;;;;4247337;28;20486;-66
2023/12/12 05:50:09;;;;;;;11.10;7.15;;;14.10;99.90;;;;;;4246931;28;20439;-66
2023/12/12 05:52:12;;;;;;;13.60;8.75;;;14.00;99.90;;;;;;4247187;28;20062;-66
2023/12/12 05:54:16;;;;;;;7.28;5.93;;;14.00;99.90;;;;;;4247245;28;20078;-66
2023/12/12 05:56:19;;;;;;;8.07;6.32;;;14.00;99.90;;;;;;4247062;28;20050;-66
2023/12/12 05:58:21;;;;;;;9.25;6.78;;;14.00;99.90;;;;;;4228768;28;20058;-66
2023/12/12 06:00:23;;;;;;;9.88;6.97;;;14.00;99.90;;;;;;4247147;28;20039;-66
2023/12/12 06:02:29;;;;;;;8.45;7.60;;;14.00;99.90;;;;;;4246860;28;20051;-66
2023/12/12 06:04:31;;;;;;;10.43;7.13;;;14.00;99.90;;;;;;4237385;28;20076;-66
2023/12/12 06:06:33;;;;;;;8.30;7.38;;;14.00;99.90;;;;;;4230001;28;20062;-66
2023/12/12 06:08:36;;;;;;;9.40;6.93;;;14.10;99.90;;;;;;4230478;28;20463;-66
2023/12/12 06:10:39;;;;;;;8.07;6.60;;;14.20;99.90;;;;;;4230200;28;20044;-67
2023/12/12 06:12:41;;;;;;;6.93;6.00;;;14.20;99.90;;;;;;4229986;28;20044;-66
2023/12/12 06:14:46;;;;;;;8.50;6.45;;;14.10;99.90;;;;;;4230133;28;20051;-66
2023/12/12 06:16:48;;;;;;;5.63;5.13;;;14.10;99.90;;;;;;4230269;28;20047;-66
2023/12/12 06:18:51;;;;;;;13.55;8.60;;;14.20;99.90;;;;;;4229773;28;20047;-67
2023/12/12 06:20:54;;;;;;;8.38;7.03;;;14.10;99.90;;;;;;4229942;28;20051;-68
2023/12/12 06:22:56;;;;;;;9.65;7.22;;;14.10;99.90;;;;;;4230146;28;20050;-67
2023/12/12 06:24:58;;;;;;;8.25;6.90;;;14.10;99.90;;;;;;4230098;28;20047;-66
2023/12/12 06:27:01;;;;;;;8.48;7.45;;;14.10;99.90;;;;;;4229863;28;20051;-67
2023/12/12 06:29:04;;;;;;;8.05;6.63;;;14.00;99.90;;;;;;4229846;28;20044;-65
2023/12/12 06:31:07;;;;;;;7.38;6.53;;;14.00;99.90;;;;;;4230178;28;20047;-66
2023/12/12 06:33:09;;;;;;;7.05;4.97;;;14.00;99.90;;;;;;4229636;28;20052;-66
2023/12/12 06:35:12;;;;;;;7.18;5.88;;;14.10;99.90;;;;;;4230921;28;20487;-66
2023/12/12 06:37:14;;;;;;;7.05;5.18;;;14.10;99.90;;;;;;4232881;28;20143;-66
2023/12/12 06:39:16;;;;;;;5.90;5.10;;;14.10;99.90;;;;;;4232745;28;20088;-65
2023/12/12 06:41:18;;;;;;;7.30;5.75;;;14.00;99.90;;;;;;4214368;28;20054;-66
2023/12/12 06:43:21;;;;;;;5.20;4.70;;;14.00;99.90;;;;;;4214677;28;20054;-66
2023/12/12 06:45:23;;;;;;;5.82;5.28;;;14.00;99.90;;;;;;4232662;28;20075;-66
2023/12/12 06:47:25;;;;;;;5.72;5.13;;;13.90;99.90;;;;;;4232637;28;20048;-66
2023/12/12 06:49:28;;;;;;;6.18;5.60;;;13.90;99.90;;;;;;4232723;28;20048;-66
2023/12/12 06:51:30;;;;;;;6.15;5.55;;;13.80;99.90;;;;;;4232739;28;20078;-66
2023/12/12 06:53:32;;;;;;;4.72;4.32;;;13.90;99.90;;;;;;4232577;28;20048;-66
2023/12/12 06:55:34;;;;;;;5.13;4.63;;;14.00;99.90;;;;;;4232657;28;20043;-66
2023/12/12 06:57:37;;;;;;;5.80;4.93;;;14.00;99.90;;;;;;4232472;28;20055;-68
2023/12/12 06:59:41;;;;;;;5.03;4.63;;;14.00;99.90;;;;;;4232776;28;20047;-66
2023/12/12 07:01:43;;;;;;;6.15;5.55;;;14.10;99.90;;;;;;4232170;28;20047;-66
2023/12/12 07:03:45;;;;;;;8.40;5.10;;;14.10;99.90;;;;;;4217299;28;20043;-67
2023/12/12 07:05:50;;;;;;;5.45;4.95;;;14.10;99.90;;;;;;4231087;28;20100;-66
2023/12/12 07:07:53;;;;;;;5.95;5.32;;;14.10;99.90;;;;;;4249576;27;20107;-69
2023/12/12 07:09:55;;;;;;;6.97;6.28;;;14.10;99.90;;;;;;4250445;27;20413;-67
2023/12/12 07:12:01;;;;;;;7.45;6.70;;;14.10;99.90;;;;;;4249362;27;20088;-66
2023/12/12 07:14:20;;;;;;;8.13;6.20;;;14.00;99.90;;;;;;4249253;27;20096;-66
2023/12/12 07:16:24;;;;;;;12.73;6.30;;;14.10;99.90;;;;;;4248914;27;20554;-66
2023/12/12 07:18:26;;;;;;;9.80;6.63;;;14.00;99.90;;;;;;4249289;27;20532;-66
2023/12/12 07:20:28;;;;;;;10.02;7.03;;;14.00;99.90;;;;;;4249264;27;20043;-67
2023/12/12 07:22:30;;;;;;;8.90;7.25;;;14.00;99.90;;;;;;4248941;27;20051;-66
2023/12/12 07:24:33;;;;;;;10.45;7.45;;;14.00;99.90;;;;;;4249286;27;20146;-66
2023/12/12 07:26:35;;;;;;;8.30;7.45;;;14.00;99.90;;;;;;4230798;28;20047;-66
2023/12/12 07:28:37;;;;;;;6.90;6.18;;;14.10;99.90;;;;;;4249008;27;20047;-66
2023/12/12 07:30:39;;;;;;;8.45;5.95;;;14.10;99.90;;;;;;4248609;27;20047;-66
2023/12/12 07:32:44;;;;;;;7.38;6.15;;;14.10;99.90;;;;;;4248852;27;20047;-66
2023/12/12 07:34:46;;;;;;;;;;;14.10;99.90;;;;;;4249587;27;20479;-66
2023/12/12 07:36:49;;;;;;;5.60;5.10;;;14.10;99.90;;;;;;4248879;27;19923;-66
2023/12/12 07:38:52;;;;;;;5.85;4.85;;;14.00;99.90;;;;;;4248919;27;20399;-66
2023/12/12 07:40:54;;;;;;;6.88;3.90;;;14.10;99.90;;;;;;4248976;27;20043;-66
2023/12/12 07:42:56;;;;;;;6.88;4.57;;;14.20;99.90;;;;;;4249063;27;20422;-66
2023/12/12 07:44:58;;;;;;;5.18;3.33;;;14.20;99.90;;;;;;4248799;27;20054;-67
2023/12/12 07:47:01;;;;;;;7.10;4.05;;;14.20;99.90;;;;;;4248676;27;20100;-66
2023/12/12 07:49:06;;;;;;;6.88;4.90;;;14.30;99.90;;;;;;4249158;27;20066;-66
2023/12/12 07:51:09;;;;;;;5.75;3.88;;;14.30;99.90;;;;;;4248645;27;20047;-66
2023/12/12 07:53:12;;;;;;;5.78;4.53;;;14.20;99.90;;;;;;4248682;27;20088;-66
2023/12/12 07:55:14;;;;;;;6.32;3.90;;;14.20;99.90;;;;;;4248522;27;20043;-66
2023/12/12 07:57:16;;;;;;;4.85;4.35;;;14.20;99.90;;;;;;4248557;27;20107;-67
2023/12/12 07:59:18;;;;;;;10.38;4.43;;;14.10;99.90;;;;;;4230508;28;20067;-66
2023/12/12 08:01:21;;;;;;;7.90;3.95;;;14.10;99.90;;;;;;4247997;27;20043;-66
2023/12/12 08:03:23;;;;;;;4.30;3.70;;;14.10;99.90;;;;;;4230540;28;20425;-66
2023/12/12 08:05:27;;;;;;;5.18;3.63;;;14.10;99.90;;;;;;4248428;27;20047;-67
2023/12/12 08:07:29;;;;;;;6.65;3.55;;;13.90;99.90;;;;;;4248680;27;20579;-67
2023/12/12 08:09:31;;;;;;;3.05;2.60;;;14.00;99.90;;;;;;4248443;27;20049;-66
2023/12/12 08:11:33;;;;;;;6.28;3.40;;;14.00;99.90;;;;;;4248798;27;20130;-66
2023/12/12 08:13:36;;;;;;;5.50;3.33;;;14.10;99.90;;;;;;4248316;27;20255;-66
2023/12/12 08:15:38;;;;;;;7.07;3.10;;;14.20;99.90;;;;;;4248000;27;20553;-66
2023/12/12 08:17:40;;;;;;;6.05;3.20;;;14.20;99.90;;;;;;4230015;28;20039;-65
2023/12/12 08:19:42;;;;;;;5.93;3.28;;;14.20;99.90;;;;;;4248098;27;20489;-66
2023/12/12 08:21:46;;;;;;;3.72;3.35;;;14.20;99.90;;;;;;4247925;27;20536;-65
2023/12/12 08:23:48;;;;;;;4.13;3.22;;;14.20;99.90;;;;;;4248085;27;20118;-65
2023/12/12 08:25:51;;;;;;;4.35;2.53;;;14.20;99.90;;;;;;4248203;27;20513;-66
2023/12/12 08:27:53;;;;;;;5.13;2.78;;;14.30;99.90;;;;;;4248331;27;20039;-66
2023/12/12 08:29:55;;;;;;;10.18;2.60;;;14.30;99.90;;;;;;4247893;27;20050;-68
2023/12/12 08:31:57;;;;;;;4.60;2.85;;;14.30;99.90;;;;;;4248411;27;20058;-66
2023/12/12 08:34:00;;;;;;;3.70;2.47;;;14.20;99.90;;;;;;4248065;27;20483;-69
2023/12/12 08:36:03;;;;;;;5.10;2.45;;;14.20;99.90;;;;;;4248116;27;20050;-66
2023/12/12 08:38:07;;;;;;;4.70;2.40;;;14.30;99.90;;;;;;4229955;28;20138;-69
2023/12/12 08:40:09;;;;;;;3.17;2.10;;;14.20;99.90;;;;;;4248310;27;20560;-66
2023/12/12 08:42:13;;;;;;;6.22;2.13;;;14.30;99.90;;;;;;4247779;27;20133;-66
2023/12/12 08:44:15;;;;;;;6.20;2.17;;;14.20;99.90;;;;;;4247484;27;20053;-66
2023/12/12 08:46:18;;;;;;;3.58;2.00;;;14.20;99.90;;;;;;4247841;27;20122;-66
2023/12/12 08:48:21;;;;;;;4.75;2.05;;;14.30;99.90;;;;;;4229878;28;20502;-66
2023/12/12 08:50:23;;;;;;;2.65;1.60;;;14.30;99.90;;;;;;4248184;27;20043;-68
2023/12/12 08:52:26;;;;;;;5.97;2.08;;;14.30;99.90;;;;;;4247988;27;20039;-67
2023/12/12 08:54:29;;;;;;;5.57;2.30;;;14.40;99.90;;;;;;4248288;27;20047;-66
2023/12/12 08:56:31;;;;;;;13.52;3.22;;;14.50;99.90;;;;;;4247786;27;20058;-66
2023/12/12 08:58:33;;;;;;;9.80;2.08;;;14.60;99.90;;;;;;4246570;27;20478;-66
2023/12/12 09:00:36;;;;;;;6.95;1.90;;;14.50;99.90;;;;;;4247606;27;20497;-69
2023/12/12 09:02:38;;;;;;;8.02;1.85;;;14.60;99.90;;;;;;4247597;27;20047;-66
2023/12/12 09:04:40;;;;;;;4.20;1.35;;;14.60;99.90;;;;;;4247268;27;20039;-66
2023/12/12 09:06:44;;;;;;;4.47;1.10;;;14.60;99.90;;;;;;4247669;27;20108;-66
2023/12/12 09:08:46;;;;;;;5.88;1.10;;;14.60;99.90;;;;;;4247813;27;20479;-65
2023/12/12 09:10:50;;;;;;;7.28;1.50;;;14.60;99.90;;;;;;4247699;27;20409;-66
2023/12/12 09:12:52;;;;;;;5.72;1.50;;;14.60;99.90;;;;;;4247423;27;20057;-66
2023/12/12 09:14:54;;;;;;;12.32;2.25;;;14.70;99.90;;;;;;4247488;27;20047;-66
2023/12/12 09:16:56;;;;;;;8.77;1.77;;;14.60;99.90;;;;;;4247553;27;20066;-66
2023/12/12 09:18:58;;;;;;;6.88;1.73;;;14.70;99.90;;;;;;4247535;27;20393;-66
2023/12/12 09:21:01;;;;;;;5.78;1.40;;;14.80;99.90;;;;;;4247145;27;20043;-67
2023/12/12 09:23:03;;;;;;;5.45;1.58;;;14.80;99.90;;;;;;4247273;27;20122;-66
2023/12/12 09:25:06;;;;;;;5.72;1.67;;;14.80;99.90;;;;;;4247738;28;20047;-66
2023/12/12 09:27:09;;;;;;;6.57;1.60;;;14.80;99.90;;;;;;4247596;28;20584;-66
2023/12/12 09:29:11;;;;;;;4.82;1.55;;;14.90;99.90;;;;;;4247488;28;20067;-66
2023/12/12 09:31:13;;;;;;;6.45;1.20;;;14.90;99.90;;;;;;4247387;28;20167;-66
2023/12/12 09:33:16;;;;;;;4.47;1.40;;;14.90;99.90;;;;;;4247281;28;20047;-66
2023/12/12 09:35:18;;;;;;;5.55;1.48;;;15.00;99.90;;;;;;4247338;28;20500;-66
2023/12/12 09:37:22;;;;;;;6.80;1.52;;;14.90;99.90;;;;;;4247254;28;20386;-66
2023/12/12 09:39:25;;;;;;;3.28;1.20;;;15.00;99.90;;;;;;4247385;28;20074;-67
2023/12/12 09:41:26;;;;;;;4.15;1.15;;;15.00;99.90;;;;;;4246896;28;20145;-67
2023/12/12 09:43:33;;;;;;;1.67;0.90;;;15.00;99.90;;;;;;4247154;28;20130;-66
2023/12/12 09:45:36;;;;;;;2.80;1.25;;;15.00;99.90;;;;;;4247255;28;20452;-67
2023/12/12 09:47:40;;;;;;;5.38;1.85;;;15.00;99.90;;;;;;4247357;28;20044;-67
2023/12/12 09:49:47;;;;;;;7.68;1.45;;;15.10;99.90;;;;;;4247332;28;20043;-66
2023/12/12 09:51:52;;;;;;;4.07;1.45;;;15.00;99.90;;;;;;4247639;28;20055;-67
2023/12/12 09:53:55;;;;;;;;;;;15.00;99.90;;;;;;4247926;28;20047;-66
2023/12/12 09:55:58;;;;;;;8.07;1.83;;;15.00;99.90;;;;;;4247208;28;19923;-65
2023/12/12 09:58:00;;;;;;;6.07;1.45;;;14.90;99.90;;;;;;4247584;28;20051;-67
2023/12/12 10:00:08;;;;;;;5.40;1.73;;;15.00;99.90;;;;;;4247621;28;20043;-67
2023/12/12 10:02:17;;;;;;;6.38;1.58;;;15.00;99.90;;;;;;4247188;28;20051;-67
2023/12/12 10:04:24;;;;;;;7.15;1.92;;;15.10;99.90;;;;;;4247188;28;20043;-66
2023/12/12 10:06:28;;;;;;;3.65;1.20;;;15.10;99.90;;;;;;4246888;28;20053;-66
2023/12/12 10:08:33;;;;;;;7.38;1.45;;;15.10;99.90;;;;;;4247090;27;20039;-66
2023/12/12 10:10:40;;;;;;;6.80;1.55;;;15.00;99.90;;;;;;4249954;27;20184;-66
2023/12/12 10:12:42;;;;;;;5.78;1.30;;;15.10;99.90;;;;;;4250568;27;20073;-67
2023/12/12 10:14:45;;;;;;;3.38;1.55;;;15.10;99.90;;;;;;4250372;27;20043;-66
2023/12/12 10:17:01;;;;;;;2.58;1.17;;;15.10;99.90;;;;;;4250227;27;20126;-66
2023/12/12 10:19:03;;;;;;;3.83;1.10;;;15.20;99.90;;;;;;4231908;28;20122;-66
2023/12/12 10:21:15;;;;;;;3.05;0.90;;;15.20;99.90;;;;;;4249926;27;20053;-66
2023/12/12 10:23:18;;;;;;;4.10;1.30;;;15.20;99.90;;;;;;4249846;27;20047;-66
2023/12/12 10:25:22;;;;;;;3.00;1.00;;;15.20;99.90;;;;;;4249952;27;20044;-66
2023/12/12 10:27:24;;;;;;;3.15;1.15;;;15.20;99.90;;;;;;4250309;27;20493;-66
2023/12/12 10:29:27;;;;;;;3.88;1.30;;;15.20;99.90;;;;;;4250281;27;20073;-67
2023/12/12 10:31:29;;;;;;;3.42;1.33;;;15.20;99.90;;;;;;4250342;27;20040;-67
2023/12/12 10:33:34;;;;;;;11.45;1.48;;;15.20;99.90;;;;;;4250424;27;20062;-66
2023/12/12 10:35:45;;;;;;;8.18;1.15;;;15.20;99.90;;;;;;4250074;27;20039;-67